Horton, Michigan
Current Conditions -  °F | °C
As of 3:56 PM on Thursday 27 Nov 2014 (Local Time) from KJXN Reporting Station
Overcast Overcast  
Wind Chill: -6°   Ceiling: 3400
Heat Index: -1°   Visibility: 10mi
Dew Point: -6°   Wind: 10mph
Humidity: 72%   Direction: 330°NNW
Pressure: 30.18"   Gusts: NA
Location:  42.15°N, 84.52°W
Report Text: KJXN 272056Z 33009KT 10SM FEW020 BKN034 OVC042 M01/M06 A3018 RMK AO2 SNE10 SLP233 P0000 60000 T10111056 53009
Loading
Personal Weather Stations






























Interactive Weather Map New forecast layout! Learn more

10-Day Weather Forecast

Advertisements
Track Severe Weather on mobile